sensor_id;sensor_type;location;lat;lon;timestamp;temperature;humidity
18575;DHT22;9417;16.484;102.872;2023-02-01T00:00:18;15.00;88.10
18575;DHT22;9417;16.484;102.872;2023-02-01T00:02:26;15.10;88.20
18575;DHT22;9417;16.484;102.872;2023-02-01T00:04:33;15.00;87.90
18575;DHT22;9417;16.484;102.872;2023-02-01T00:06:40;15.00;87.80
18575;DHT22;9417;16.484;102.872;2023-02-01T00:08:47;15.00;87.70
18575;DHT22;9417;16.484;102.872;2023-02-01T00:11:03;15.00;88.00
18575;DHT22;9417;16.484;102.872;2023-02-01T00:13:10;15.00;88.40
18575;DHT22;9417;16.484;102.872;2023-02-01T00:15:17;15.00;88.50
18575;DHT22;9417;16.484;102.872;2023-02-01T00:17:25;15.00;88.50
18575;DHT22;9417;16.484;102.872;2023-02-01T00:19:32;15.00;88.40
18575;DHT22;9417;16.484;102.872;2023-02-01T00:21:40;15.10;88.60
18575;DHT22;9417;16.484;102.872;2023-02-01T00:23:48;15.10;88.70
18575;DHT22;9417;16.484;102.872;2023-02-01T00:25:55;15.10;88.80
18575;DHT22;9417;16.484;102.872;2023-02-01T00:28:08;15.20;88.80
18575;DHT22;9417;16.484;102.872;2023-02-01T00:30:15;15.20;89.80
18575;DHT22;9417;16.484;102.872;2023-02-01T00:32:23;15.20;90.20
18575;DHT22;9417;16.484;102.872;2023-02-01T00:34:30;15.20;90.90
18575;DHT22;9417;16.484;102.872;2023-02-01T00:36:37;15.30;91.80
18575;DHT22;9417;16.484;102.872;2023-02-01T00:38:44;15.30;91.30
18575;DHT22;9417;16.484;102.872;2023-02-01T00:40:51;15.40;91.30
18575;DHT22;9417;16.484;102.872;2023-02-01T00:42:58;15.40;91.20
18575;DHT22;9417;16.484;102.872;2023-02-01T00:45:09;15.50;90.90
18575;DHT22;9417;16.484;102.872;2023-02-01T00:47:16;15.50;90.40
18575;DHT22;9417;16.484;102.872;2023-02-01T00:49:25;15.60;90.20
18575;DHT22;9417;16.484;102.872;2023-02-01T00:51:33;15.60;89.70
18575;DHT22;9417;16.484;102.872;2023-02-01T00:53:40;15.60;89.40
18575;DHT22;9417;16.484;102.872;2023-02-01T00:55:47;15.70;89.50
18575;DHT22;9417;16.484;102.872;2023-02-01T00:57:55;15.80;89.60
18575;DHT22;9417;16.484;102.872;2023-02-01T01:00:02;15.80;89.90
18575;DHT22;9417;16.484;102.872;2023-02-01T01:02:11;15.80;90.20
18575;DHT22;9417;16.484;102.872;2023-02-01T01:04:19;15.90;89.30
18575;DHT22;9417;16.484;102.872;2023-02-01T01:06:27;16.00;89.20
18575;DHT22;9417;16.484;102.872;2023-02-01T01:08:35;16.00;88.50
18575;DHT22;9417;16.484;102.872;2023-02-01T01:10:43;16.10;88.20
18575;DHT22;9417;16.484;102.872;2023-02-01T01:12:50;16.20;87.90
18575;DHT22;9417;16.484;102.872;2023-02-01T01:14:57;16.30;87.60
18575;DHT22;9417;16.484;102.872;2023-02-01T01:17:04;16.40;88.00
18575;DHT22;9417;16.484;102.872;2023-02-01T01:19:12;16.50;88.10
18575;DHT22;9417;16.484;102.872;2023-02-01T01:21:19;16.50;87.30
18575;DHT22;9417;16.484;102.872;2023-02-01T01:23:27;16.60;86.40
18575;DHT22;9417;16.484;102.872;2023-02-01T01:25:38;16.70;86.00
18575;DHT22;9417;16.484;102.872;2023-02-01T01:27:46;16.90;86.50
18575;DHT22;9417;16.484;102.872;2023-02-01T01:29:53;16.90;85.60
18575;DHT22;9417;16.484;102.872;2023-02-01T01:32:00;17.00;85.20
18575;DHT22;9417;16.484;102.872;2023-02-01T01:34:08;17.10;85.40
18575;DHT22;9417;16.484;102.872;2023-02-01T01:36:17;17.20;84.10
18575;DHT22;9417;16.484;102.872;2023-02-01T01:38:24;17.30;83.30
18575;DHT22;9417;16.484;102.872;2023-02-01T01:40:31;17.40;83.30
18575;DHT22;9417;16.484;102.872;2023-02-01T01:42:39;17.50;82.10
18575;DHT22;9417;16.484;102.872;2023-02-01T01:45:02;17.60;81.50
18575;DHT22;9417;16.484;102.872;2023-02-01T01:47:10;17.70;80.80
18575;DHT22;9417;16.484;102.872;2023-02-01T01:49:19;17.80;79.40
18575;DHT22;9417;16.484;102.872;2023-02-01T01:51:29;17.90;79.10
18575;DHT22;9417;16.484;102.872;2023-02-01T01:53:40;18.00;79.00
18575;DHT22;9417;16.484;102.872;2023-02-01T01:55:51;18.10;79.40
18575;DHT22;9417;16.484;102.872;2023-02-01T01:58:03;18.20;79.30
18575;DHT22;9417;16.484;102.872;2023-02-01T02:00:13;18.30;79.10
18575;DHT22;9417;16.484;102.872;2023-02-01T02:02:21;18.40;78.60
18575;DHT22;9417;16.484;102.872;2023-02-01T02:04:29;18.40;77.80
18575;DHT22;9417;16.484;102.872;2023-02-01T02:06:43;18.50;77.00
18575;DHT22;9417;16.484;102.872;2023-02-01T02:08:52;18.60;76.60
18575;DHT22;9417;16.484;102.872;2023-02-01T02:10:59;18.70;76.30
18575;DHT22;9417;16.484;102.872;2023-02-01T02:13:07;18.80;75.70
18575;DHT22;9417;16.484;102.872;2023-02-01T02:15:16;18.90;74.80
18575;DHT22;9417;16.484;102.872;2023-02-01T02:17:33;19.00;74.40
18575;DHT22;9417;16.484;102.872;2023-02-01T02:20:02;19.10;74.70
18575;DHT22;9417;16.484;102.872;2023-02-01T02:22:31;19.20;74.50
18575;DHT22;9417;16.484;102.872;2023-02-01T02:24:58;19.30;73.80
18575;DHT22;9417;16.484;102.872;2023-02-01T02:27:19;19.50;73.50
18575;DHT22;9417;16.484;102.872;2023-02-01T02:32:32;19.70;72.70
18575;DHT22;9417;16.484;102.872;2023-02-01T02:34:45;19.80;71.60
18575;DHT22;9417;16.484;102.872;2023-02-01T02:37:04;19.90;70.90
18575;DHT22;9417;16.484;102.872;2023-02-01T02:39:16;20.00;71.00
18575;DHT22;9417;16.484;102.872;2023-02-01T02:41:31;20.20;70.00
18575;DHT22;9417;16.484;102.872;2023-02-01T02:43:58;20.30;69.60
18575;DHT22;9417;16.484;102.872;2023-02-01T02:46:24;20.40;68.60
18575;DHT22;9417;16.484;102.872;2023-02-01T02:49:08;20.60;68.90
18575;DHT22;9417;16.484;102.872;2023-02-01T02:51:23;20.70;68.70
18575;DHT22;9417;16.484;102.872;2023-02-01T02:53:50;20.90;67.80
18575;DHT22;9417;16.484;102.872;2023-02-01T02:56:16;21.00;65.60
18575;DHT22;9417;16.484;102.872;2023-02-01T02:58:43;21.20;66.60
18575;DHT22;9417;16.484;102.872;2023-02-01T03:01:08;21.30;65.20
18575;DHT22;9417;16.484;102.872;2023-02-01T03:03:32;21.50;64.70
18575;DHT22;9417;16.484;102.872;2023-02-01T03:05:58;21.60;65.40
18575;DHT22;9417;16.484;102.872;2023-02-01T03:08:11;21.80;65.40
18575;DHT22;9417;16.484;102.872;2023-02-01T03:10:26;21.80;64.90
18575;DHT22;9417;16.484;102.872;2023-02-01T03:12:37;21.90;64.20
18575;DHT22;9417;16.484;102.872;2023-02-01T03:15:09;21.90;63.70
18575;DHT22;9417;16.484;102.872;2023-02-01T03:17:22;22.10;62.90
18575;DHT22;9417;16.484;102.872;2023-02-01T03:19:35;22.20;62.60
18575;DHT22;9417;16.484;102.872;2023-02-01T03:21:47;22.40;59.70
18575;DHT22;9417;16.484;102.872;2023-02-01T03:23:59;22.50;58.90
18575;DHT22;9417;16.484;102.872;2023-02-01T03:26:10;22.60;57.20
18575;DHT22;9417;16.484;102.872;2023-02-01T03:28:23;22.70;56.80
18575;DHT22;9417;16.484;102.872;2023-02-01T03:30:36;22.90;57.10
18575;DHT22;9417;16.484;102.872;2023-02-01T03:32:46;23.00;57.00
18575;DHT22;9417;16.484;102.872;2023-02-01T03:35:10;23.10;56.90
18575;DHT22;9417;16.484;102.872;2023-02-01T03:37:22;23.20;56.50
18575;DHT22;9417;16.484;102.872;2023-02-01T03:39:36;23.30;54.00
18575;DHT22;9417;16.484;102.872;2023-02-01T03:41:47;23.40;53.90
18575;DHT22;9417;16.484;102.872;2023-02-01T03:44:00;23.50;54.20
18575;DHT22;9417;16.484;102.872;2023-02-01T03:46:11;23.60;53.80
18575;DHT22;9417;16.484;102.872;2023-02-01T03:48:23;23.70;53.90
18575;DHT22;9417;16.484;102.872;2023-02-01T03:50:31;23.80;53.50
18575;DHT22;9417;16.484;102.872;2023-02-01T03:52:45;23.90;53.10
18575;DHT22;9417;16.484;102.872;2023-02-01T03:54:56;24.00;52.50
18575;DHT22;9417;16.484;102.872;2023-02-01T03:57:09;24.10;50.20
18575;DHT22;9417;16.484;102.872;2023-02-01T03:59:16;24.10;51.00
18575;DHT22;9417;16.484;102.872;2023-02-01T04:01:24;24.20;50.10
18575;DHT22;9417;16.484;102.872;2023-02-01T04:03:31;24.30;49.90
18575;DHT22;9417;16.484;102.872;2023-02-01T04:05:39;24.40;50.10
18575;DHT22;9417;16.484;102.872;2023-02-01T04:07:46;24.50;50.10
18575;DHT22;9417;16.484;102.872;2023-02-01T04:09:53;24.60;50.20
18575;DHT22;9417;16.484;102.872;2023-02-01T04:12:02;24.70;50.10
18575;DHT22;9417;16.484;102.872;2023-02-01T04:14:09;24.80;49.90
18575;DHT22;9417;16.484;102.872;2023-02-01T04:16:16;24.90;49.70
18575;DHT22;9417;16.484;102.872;2023-02-01T04:18:23;24.90;49.80
18575;DHT22;9417;16.484;102.872;2023-02-01T04:20:30;24.90;49.90
18575;DHT22;9417;16.484;102.872;2023-02-01T04:22:37;25.00;49.60
18575;DHT22;9417;16.484;102.872;2023-02-01T04:24:45;25.00;49.70
18575;DHT22;9417;16.484;102.872;2023-02-01T04:26:52;25.10;49.10
18575;DHT22;9417;16.484;102.872;2023-02-01T04:29:01;25.20;48.60
18575;DHT22;9417;16.484;102.872;2023-02-01T04:31:08;25.40;48.40
18575;DHT22;9417;16.484;102.872;2023-02-01T04:33:15;25.50;47.60
18575;DHT22;9417;16.484;102.872;2023-02-01T04:35:22;25.60;46.20
18575;DHT22;9417;16.484;102.872;2023-02-01T04:37:30;25.80;46.20
18575;DHT22;9417;16.484;102.872;2023-02-01T04:39:36;25.90;46.70
18575;DHT22;9417;16.484;102.872;2023-02-01T04:41:44;26.00;46.50
18575;DHT22;9417;16.484;102.872;2023-02-01T04:43:51;26.00;46.80
18575;DHT22;9417;16.484;102.872;2023-02-01T04:46:00;26.10;46.10
18575;DHT22;9417;16.484;102.872;2023-02-01T04:48:07;26.20;46.00
18575;DHT22;9417;16.484;102.872;2023-02-01T04:50:15;26.20;46.10
18575;DHT22;9417;16.484;102.872;2023-02-01T04:52:22;26.30;45.20
18575;DHT22;9417;16.484;102.872;2023-02-01T04:54:29;26.40;45.20
18575;DHT22;9417;16.484;102.872;2023-02-01T04:56:36;26.50;44.20
18575;DHT22;9417;16.484;102.872;2023-02-01T04:58:44;26.60;44.90
18575;DHT22;9417;16.484;102.872;2023-02-01T05:00:51;26.70;43.90
18575;DHT22;9417;16.484;102.872;2023-02-01T05:02:59;26.70;44.10
18575;DHT22;9417;16.484;102.872;2023-02-01T05:05:07;26.80;43.90
18575;DHT22;9417;16.484;102.872;2023-02-01T05:07:15;26.80;44.70
18575;DHT22;9417;16.484;102.872;2023-02-01T05:09:22;27.00;43.50
18575;DHT22;9417;16.484;102.872;2023-02-01T05:11:29;27.10;42.80
18575;DHT22;9417;16.484;102.872;2023-02-01T05:13:53;27.10;42.60
18575;DHT22;9417;16.484;102.872;2023-02-01T05:16:00;27.20;42.60
18575;DHT22;9417;16.484;102.872;2023-02-01T05:18:08;27.20;42.50
18575;DHT22;9417;16.484;102.872;2023-02-01T05:20:16;27.30;42.90
18575;DHT22;9417;16.484;102.872;2023-02-01T05:22:24;27.30;41.30
18575;DHT22;9417;16.484;102.872;2023-02-01T05:24:31;27.30;41.60
18575;DHT22;9417;16.484;102.872;2023-02-01T05:26:39;27.40;41.60
18575;DHT22;9417;16.484;102.872;2023-02-01T05:28:46;27.50;41.00
18575;DHT22;9417;16.484;102.872;2023-02-01T05:30:56;27.60;41.50
18575;DHT22;9417;16.484;102.872;2023-02-01T05:33:04;27.60;41.00
18575;DHT22;9417;16.484;102.872;2023-02-01T05:35:13;27.70;40.70
18575;DHT22;9417;16.484;102.872;2023-02-01T05:37:20;27.70;40.40
18575;DHT22;9417;16.484;102.872;2023-02-01T05:39:27;27.80;41.10
18575;DHT22;9417;16.484;102.872;2023-02-01T05:41:34;27.90;40.90
18575;DHT22;9417;16.484;102.872;2023-02-01T05:43:41;27.90;39.60
18575;DHT22;9417;16.484;102.872;2023-02-01T05:45:48;28.00;39.40
18575;DHT22;9417;16.484;102.872;2023-02-01T05:47:55;28.00;39.80
18575;DHT22;9417;16.484;102.872;2023-02-01T05:50:02;28.10;39.80
18575;DHT22;9417;16.484;102.872;2023-02-01T05:52:11;28.20;39.10
18575;DHT22;9417;16.484;102.872;2023-02-01T05:54:18;28.20;39.70
18575;DHT22;9417;16.484;102.872;2023-02-01T05:56:25;28.30;39.70
18575;DHT22;9417;16.484;102.872;2023-02-01T05:58:32;28.40;39.10
18575;DHT22;9417;16.484;102.872;2023-02-01T06:00:39;28.40;39.00
18575;DHT22;9417;16.484;102.872;2023-02-01T06:02:46;28.40;39.30
18575;DHT22;9417;16.484;102.872;2023-02-01T06:04:54;28.50;39.30
18575;DHT22;9417;16.484;102.872;2023-02-01T06:07:01;28.50;39.30
18575;DHT22;9417;16.484;102.872;2023-02-01T06:09:09;28.50;39.40
18575;DHT22;9417;16.484;102.872;2023-02-01T06:11:17;28.50;39.70
18575;DHT22;9417;16.484;102.872;2023-02-01T06:13:35;28.50;39.30
18575;DHT22;9417;16.484;102.872;2023-02-01T06:15:43;28.60;38.00
18575;DHT22;9417;16.484;102.872;2023-02-01T06:17:50;28.60;37.50
18575;DHT22;9417;16.484;102.872;2023-02-01T06:19:57;28.60;37.60
18575;DHT22;9417;16.484;102.872;2023-02-01T06:22:04;28.70;37.60
18575;DHT22;9417;16.484;102.872;2023-02-01T06:24:13;28.70;37.50
18575;DHT22;9417;16.484;102.872;2023-02-01T06:26:20;28.70;36.80
18575;DHT22;9417;16.484;102.872;2023-02-01T06:28:28;28.70;36.20
18575;DHT22;9417;16.484;102.872;2023-02-01T06:30:35;28.80;36.10
18575;DHT22;9417;16.484;102.872;2023-02-01T06:32:42;28.80;36.50
18575;DHT22;9417;16.484;102.872;2023-02-01T06:34:49;28.80;36.20
18575;DHT22;9417;16.484;102.872;2023-02-01T06:36:57;28.90;36.30
18575;DHT22;9417;16.484;102.872;2023-02-01T06:39:04;29.00;35.80
18575;DHT22;9417;16.484;102.872;2023-02-01T06:41:13;29.00;35.50
18575;DHT22;9417;16.484;102.872;2023-02-01T06:43:20;29.00;35.90
18575;DHT22;9417;16.484;102.872;2023-02-01T06:45:27;29.00;35.10
18575;DHT22;9417;16.484;102.872;2023-02-01T06:47:34;29.00;35.10
18575;DHT22;9417;16.484;102.872;2023-02-01T06:49:41;29.10;35.50
18575;DHT22;9417;16.484;102.872;2023-02-01T06:51:48;29.10;34.90
18575;DHT22;9417;16.484;102.872;2023-02-01T06:53:55;29.20;34.70
18575;DHT22;9417;16.484;102.872;2023-02-01T06:56:03;29.20;34.20
18575;DHT22;9417;16.484;102.872;2023-02-01T06:58:12;29.20;34.40
18575;DHT22;9417;16.484;102.872;2023-02-01T07:00:20;29.20;34.60
18575;DHT22;9417;16.484;102.872;2023-02-01T07:02:28;29.30;34.90
18575;DHT22;9417;16.484;102.872;2023-02-01T07:04:35;29.20;34.00
18575;DHT22;9417;16.484;102.872;2023-02-01T07:06:42;29.20;34.30
18575;DHT22;9417;16.484;102.872;2023-02-01T07:08:49;29.30;35.30
18575;DHT22;9417;16.484;102.872;2023-02-01T07:11:02;29.30;34.60
18575;DHT22;9417;16.484;102.872;2023-02-01T07:13:11;29.30;34.70
18575;DHT22;9417;16.484;102.872;2023-02-01T07:15:18;29.40;34.80
18575;DHT22;9417;16.484;102.872;2023-02-01T07:17:28;29.40;34.00
18575;DHT22;9417;16.484;102.872;2023-02-01T07:19:35;29.40;34.30
18575;DHT22;9417;16.484;102.872;2023-02-01T07:21:42;29.50;34.60
18575;DHT22;9417;16.484;102.872;2023-02-01T07:23:49;29.40;34.60
18575;DHT22;9417;16.484;102.872;2023-02-01T07:25:57;29.50;34.80
18575;DHT22;9417;16.484;102.872;2023-02-01T07:28:05;29.50;34.60
18575;DHT22;9417;16.484;102.872;2023-02-01T07:30:14;29.50;34.70
18575;DHT22;9417;16.484;102.872;2023-02-01T07:32:21;29.50;35.10
18575;DHT22;9417;16.484;102.872;2023-02-01T07:34:28;29.50;34.50
18575;DHT22;9417;16.484;102.872;2023-02-01T07:36:35;29.60;33.70
18575;DHT22;9417;16.484;102.872;2023-02-01T07:38:43;29.60;34.80
18575;DHT22;9417;16.484;102.872;2023-02-01T07:40:51;29.60;34.70
18575;DHT22;9417;16.484;102.872;2023-02-01T07:43:03;29.60;34.70
18575;DHT22;9417;16.484;102.872;2023-02-01T07:45:12;29.60;34.90
18575;DHT22;9417;16.484;102.872;2023-02-01T07:47:24;29.60;34.60
18575;DHT22;9417;16.484;102.872;2023-02-01T07:49:31;29.50;34.20
18575;DHT22;9417;16.484;102.872;2023-02-01T07:51:38;29.50;34.60
18575;DHT22;9417;16.484;102.872;2023-02-01T07:53:46;29.40;34.40
18575;DHT22;9417;16.484;102.872;2023-02-01T07:55:53;29.40;35.00
18575;DHT22;9417;16.484;102.872;2023-02-01T07:58:03;29.30;34.70
18575;DHT22;9417;16.484;102.872;2023-02-01T08:00:13;29.20;35.00
18575;DHT22;9417;16.484;102.872;2023-02-01T08:02:36;29.10;34.90
18575;DHT22;9417;16.484;102.872;2023-02-01T08:04:43;29.00;34.70
18575;DHT22;9417;16.484;102.872;2023-02-01T08:06:50;28.90;35.40
18575;DHT22;9417;16.484;102.872;2023-02-01T08:08:57;28.90;35.70
18575;DHT22;9417;16.484;102.872;2023-02-01T08:11:06;28.80;35.60
18575;DHT22;9417;16.484;102.872;2023-02-01T08:13:13;28.80;35.30
18575;DHT22;9417;16.484;102.872;2023-02-01T08:15:22;28.90;35.80
18575;DHT22;9417;16.484;102.872;2023-02-01T08:17:29;28.90;35.80
18575;DHT22;9417;16.484;102.872;2023-02-01T08:19:36;28.90;35.90
18575;DHT22;9417;16.484;102.872;2023-02-01T08:21:43;28.90;36.10
18575;DHT22;9417;16.484;102.872;2023-02-01T08:23:53;28.90;36.00
18575;DHT22;9417;16.484;102.872;2023-02-01T08:26:09;28.90;35.60
18575;DHT22;9417;16.484;102.872;2023-02-01T08:28:16;29.00;35.80
18575;DHT22;9417;16.484;102.872;2023-02-01T08:30:25;29.00;35.90
18575;DHT22;9417;16.484;102.872;2023-02-01T08:32:33;29.00;36.10
18575;DHT22;9417;16.484;102.872;2023-02-01T08:34:40;29.10;36.10
18575;DHT22;9417;16.484;102.872;2023-02-01T08:36:47;29.10;36.20
18575;DHT22;9417;16.484;102.872;2023-02-01T08:38:56;29.10;36.00
18575;DHT22;9417;16.484;102.872;2023-02-01T08:41:07;29.10;35.50
18575;DHT22;9417;16.484;102.872;2023-02-01T08:43:14;29.10;35.30
18575;DHT22;9417;16.484;102.872;2023-02-01T08:45:24;29.10;35.60
18575;DHT22;9417;16.484;102.872;2023-02-01T08:47:31;29.00;35.70
18575;DHT22;9417;16.484;102.872;2023-02-01T08:49:38;29.00;35.60
18575;DHT22;9417;16.484;102.872;2023-02-01T08:51:45;29.00;35.80
18575;DHT22;9417;16.484;102.872;2023-02-01T08:53:52;28.90;36.00
18575;DHT22;9417;16.484;102.872;2023-02-01T08:55:59;28.90;36.20
18575;DHT22;9417;16.484;102.872;2023-02-01T08:58:07;28.90;36.70
18575;DHT22;9417;16.484;102.872;2023-02-01T09:00:19;28.90;37.10
18575;DHT22;9417;16.484;102.872;2023-02-01T09:02:28;28.80;36.60
18575;DHT22;9417;16.484;102.872;2023-02-01T09:04:35;28.80;36.60
18575;DHT22;9417;16.484;102.872;2023-02-01T09:06:42;28.80;36.50
18575;DHT22;9417;16.484;102.872;2023-02-01T09:08:49;28.90;36.30
18575;DHT22;9417;16.484;102.872;2023-02-01T09:10:59;28.90;36.30
18575;DHT22;9417;16.484;102.872;2023-02-01T09:13:07;28.90;36.90
18575;DHT22;9417;16.484;102.872;2023-02-01T09:15:15;28.90;36.90
18575;DHT22;9417;16.484;102.872;2023-02-01T09:17:22;28.90;36.90
18575;DHT22;9417;16.484;102.872;2023-02-01T09:19:35;28.80;36.70
18575;DHT22;9417;16.484;102.872;2023-02-01T09:21:44;28.80;35.70
18575;DHT22;9417;16.484;102.872;2023-02-01T09:23:51;28.80;37.00
18575;DHT22;9417;16.484;102.872;2023-02-01T09:25:59;28.80;36.80
18575;DHT22;9417;16.484;102.872;2023-02-01T09:28:07;28.70;36.40
18575;DHT22;9417;16.484;102.872;2023-02-01T09:30:14;28.70;36.60
18575;DHT22;9417;16.484;102.872;2023-02-01T09:32:22;28.70;36.70
18575;DHT22;9417;16.484;102.872;2023-02-01T09:34:30;28.70;37.00
18575;DHT22;9417;16.484;102.872;2023-02-01T09:36:38;28.70;37.20
18575;DHT22;9417;16.484;102.872;2023-02-01T09:38:45;28.60;37.00
18575;DHT22;9417;16.484;102.872;2023-02-01T09:40:56;28.60;37.20
18575;DHT22;9417;16.484;102.872;2023-02-01T09:43:18;28.60;37.60
18575;DHT22;9417;16.484;102.872;2023-02-01T09:45:31;28.60;37.50
18575;DHT22;9417;16.484;102.872;2023-02-01T09:47:46;28.50;37.50
18575;DHT22;9417;16.484;102.872;2023-02-01T09:49:57;28.60;37.60
18575;DHT22;9417;16.484;102.872;2023-02-01T09:52:09;28.50;37.30
18575;DHT22;9417;16.484;102.872;2023-02-01T09:54:21;28.50;37.20
18575;DHT22;9417;16.484;102.872;2023-02-01T09:56:36;28.40;36.90
18575;DHT22;9417;16.484;102.872;2023-02-01T09:58:50;28.40;37.20
18575;DHT22;9417;16.484;102.872;2023-02-01T10:01:00;28.40;37.60
18575;DHT22;9417;16.484;102.872;2023-02-01T10:03:12;28.40;38.30
18575;DHT22;9417;16.484;102.872;2023-02-01T10:05:27;28.40;38.60
18575;DHT22;9417;16.484;102.872;2023-02-01T10:07:41;28.30;39.30
18575;DHT22;9417;16.484;102.872;2023-02-01T10:09:58;28.30;39.60
18575;DHT22;9417;16.484;102.872;2023-02-01T10:14:56;28.20;39.90
18575;DHT22;9417;16.484;102.872;2023-02-01T10:17:16;28.10;40.00
18575;DHT22;9417;16.484;102.872;2023-02-01T10:19:37;28.10;39.80
18575;DHT22;9417;16.484;102.872;2023-02-01T10:21:52;28.00;39.60
18575;DHT22;9417;16.484;102.872;2023-02-01T10:24:16;28.00;39.60
18575;DHT22;9417;16.484;102.872;2023-02-01T10:26:26;27.90;39.60
18575;DHT22;9417;16.484;102.872;2023-02-01T10:28:37;27.90;39.80
18575;DHT22;9417;16.484;102.872;2023-02-01T10:30:46;27.80;39.90
18575;DHT22;9417;16.484;102.872;2023-02-01T10:32:56;27.80;40.10
18575;DHT22;9417;16.484;102.872;2023-02-01T10:35:12;27.70;40.80
18575;DHT22;9417;16.484;102.872;2023-02-01T10:37:27;27.70;41.50
18575;DHT22;9417;16.484;102.872;2023-02-01T10:39:37;27.60;41.50
18575;DHT22;9417;16.484;102.872;2023-02-01T10:41:44;27.50;41.80
18575;DHT22;9417;16.484;102.872;2023-02-01T10:43:54;27.50;42.10
18575;DHT22;9417;16.484;102.872;2023-02-01T10:46:01;27.40;42.50
18575;DHT22;9417;16.484;102.872;2023-02-01T10:48:08;27.40;42.70
18575;DHT22;9417;16.484;102.872;2023-02-01T10:50:22;27.30;43.00
18575;DHT22;9417;16.484;102.872;2023-02-01T10:52:38;27.30;43.30
18575;DHT22;9417;16.484;102.872;2023-02-01T10:54:49;27.20;43.60
18575;DHT22;9417;16.484;102.872;2023-02-01T10:56:56;27.10;43.90
18575;DHT22;9417;16.484;102.872;2023-02-01T10:59:05;27.10;44.20
18575;DHT22;9417;16.484;102.872;2023-02-01T11:01:17;27.00;44.50
18575;DHT22;9417;16.484;102.872;2023-02-01T11:03:42;27.00;44.90
18575;DHT22;9417;16.484;102.872;2023-02-01T11:05:49;26.90;45.50
18575;DHT22;9417;16.484;102.872;2023-02-01T11:07:56;26.80;46.00
18575;DHT22;9417;16.484;102.872;2023-02-01T11:10:09;26.70;47.50
18575;DHT22;9417;16.484;102.872;2023-02-01T11:12:38;26.50;48.30
18575;DHT22;9417;16.484;102.872;2023-02-01T11:14:48;26.40;48.70
18575;DHT22;9417;16.484;102.872;2023-02-01T11:16:57;26.30;49.20
18575;DHT22;9417;16.484;102.872;2023-02-01T11:19:05;26.10;49.80
18575;DHT22;9417;16.484;102.872;2023-02-01T11:21:14;26.00;50.80
18575;DHT22;9417;16.484;102.872;2023-02-01T11:23:22;25.90;51.30
18575;DHT22;9417;16.484;102.872;2023-02-01T11:25:33;25.80;51.30
18575;DHT22;9417;16.484;102.872;2023-02-01T11:27:42;25.70;52.20
18575;DHT22;9417;16.484;102.872;2023-02-01T11:30:00;25.60;51.80
18575;DHT22;9417;16.484;102.872;2023-02-01T11:32:10;25.50;51.30
18575;DHT22;9417;16.484;102.872;2023-02-01T11:34:21;25.40;52.00
18575;DHT22;9417;16.484;102.872;2023-02-01T11:36:31;25.40;52.40
18575;DHT22;9417;16.484;102.872;2023-02-01T11:38:39;25.30;52.40
18575;DHT22;9417;16.484;102.872;2023-02-01T11:40:48;25.20;52.80
18575;DHT22;9417;16.484;102.872;2023-02-01T11:42:58;25.10;53.50
18575;DHT22;9417;16.484;102.872;2023-02-01T11:45:19;25.00;53.70
18575;DHT22;9417;16.484;102.872;2023-02-01T11:47:27;24.90;55.40
18575;DHT22;9417;16.484;102.872;2023-02-01T11:49:35;24.90;57.10
18575;DHT22;9417;16.484;102.872;2023-02-01T11:51:49;24.70;55.30
18575;DHT22;9417;16.484;102.872;2023-02-01T11:54:13;24.70;55.50
18575;DHT22;9417;16.484;102.872;2023-02-01T11:56:29;24.70;55.80
18575;DHT22;9417;16.484;102.872;2023-02-01T11:59:08;24.60;55.40
18575;DHT22;9417;16.484;102.872;2023-02-01T12:01:37;24.50;57.10
18575;DHT22;9417;16.484;102.872;2023-02-01T12:04:13;24.50;59.00
18575;DHT22;9417;16.484;102.872;2023-02-01T12:06:30;24.40;58.00
18575;DHT22;9417;16.484;102.872;2023-02-01T12:09:00;24.30;57.20
18575;DHT22;9417;16.484;102.872;2023-02-01T12:11:25;24.20;57.80
18575;DHT22;9417;16.484;102.872;2023-02-01T12:13:44;24.20;57.60
18575;DHT22;9417;16.484;102.872;2023-02-01T12:16:02;24.10;58.20
18575;DHT22;9417;16.484;102.872;2023-02-01T12:18:37;24.00;58.50
18575;DHT22;9417;16.484;102.872;2023-02-01T12:21:06;24.00;58.80
18575;DHT22;9417;16.484;102.872;2023-02-01T12:23:24;23.90;60.50
18575;DHT22;9417;16.484;102.872;2023-02-01T12:25:42;23.80;60.10
18575;DHT22;9417;16.484;102.872;2023-02-01T12:28:21;23.80;61.10
18575;DHT22;9417;16.484;102.872;2023-02-01T12:30:59;23.70;62.00
18575;DHT22;9417;16.484;102.872;2023-02-01T12:33:20;23.60;62.00
18575;DHT22;9417;16.484;102.872;2023-02-01T12:35:45;23.60;61.40
18575;DHT22;9417;16.484;102.872;2023-02-01T12:38:06;23.60;61.70
18575;DHT22;9417;16.484;102.872;2023-02-01T12:40:27;23.50;62.30
18575;DHT22;9417;16.484;102.872;2023-02-01T12:42:38;23.40;62.60
18575;DHT22;9417;16.484;102.872;2023-02-01T12:44:52;23.40;61.70
18575;DHT22;9417;16.484;102.872;2023-02-01T12:47:04;23.40;61.20
18575;DHT22;9417;16.484;102.872;2023-02-01T12:49:15;23.40;61.00
18575;DHT22;9417;16.484;102.872;2023-02-01T12:51:27;23.40;61.30
18575;DHT22;9417;16.484;102.872;2023-02-01T12:53:44;23.40;61.80
18575;DHT22;9417;16.484;102.872;2023-02-01T12:55:55;23.40;63.10
18575;DHT22;9417;16.484;102.872;2023-02-01T12:58:09;23.20;63.80
18575;DHT22;9417;16.484;102.872;2023-02-01T13:00:25;23.10;63.70
18575;DHT22;9417;16.484;102.872;2023-02-01T13:02:39;23.00;63.70
18575;DHT22;9417;16.484;102.872;2023-02-01T13:04:56;22.90;63.90
18575;DHT22;9417;16.484;102.872;2023-02-01T13:07:11;22.90;64.40
18575;DHT22;9417;16.484;102.872;2023-02-01T13:09:23;22.80;65.00
18575;DHT22;9417;16.484;102.872;2023-02-01T13:11:33;22.80;65.80
18575;DHT22;9417;16.484;102.872;2023-02-01T13:13:48;22.70;66.10
18575;DHT22;9417;16.484;102.872;2023-02-01T13:16:06;22.60;66.60
18575;DHT22;9417;16.484;102.872;2023-02-01T13:18:20;22.60;67.30
18575;DHT22;9417;16.484;102.872;2023-02-01T13:20:34;22.60;67.40
18575;DHT22;9417;16.484;102.872;2023-02-01T13:22:45;22.50;67.60
18575;DHT22;9417;16.484;102.872;2023-02-01T13:24:55;22.50;67.80
18575;DHT22;9417;16.484;102.872;2023-02-01T13:27:03;22.40;68.00
18575;DHT22;9417;16.484;102.872;2023-02-01T13:29:11;22.40;68.20
18575;DHT22;9417;16.484;102.872;2023-02-01T13:31:51;22.40;68.60
18575;DHT22;9417;16.484;102.872;2023-02-01T13:37:05;22.30;70.10
18575;DHT22;9417;16.484;102.872;2023-02-01T13:39:37;22.20;69.70
18575;DHT22;9417;16.484;102.872;2023-02-01T13:41:54;22.10;70.20
18575;DHT22;9417;16.484;102.872;2023-02-01T13:44:09;22.10;70.50